Time;durP1;ratioP1;P1;durP2;ratioP2;P2;SDS_P1;SDS_P2;PMS_P1;PMS_P2;Temp;Humidity;BMP_temperature;BMP_pressure;BME280_temperature;BME280_humidity;BME280_pressure;Samples;Min_cycle;Max_cycle;Signal;HPM_P1;HPM_P2
2022/12/04 00:00:02;;;;;;;416.03;256.53;;;;;;;0.69;76.71;101745.63;4211476;28;20702;-59
2022/12/04 00:02:11;;;;;;;427.00;243.27;;;;;;;0.75;76.74;101748.88;4213788;28;20351;-60
2022/12/04 00:04:13;;;;;;;434.40;271.30;;;;;;;0.76;76.88;101753.25;4210193;28;20286;-59
2022/12/04 00:06:18;;;;;;;414.83;235.27;;;;;;;0.75;76.53;101751.53;4212285;28;20321;-59
2022/12/04 00:08:25;;;;;;;449.33;314.93;;;;;;;0.74;76.71;101749.81;4195249;28;20245;-60
2022/12/04 00:10:27;;;;;;;450.37;332.23;;;;;;;0.79;76.53;101758.41;4212590;28;20315;-58
2022/12/04 00:12:29;;;;;;;441.20;291.30;;;;;;;0.79;76.63;101753.09;4213214;28;20301;-59
2022/12/04 00:14:33;;;;;;;428.83;269.53;;;;;;;0.81;76.51;101761.81;4212940;28;20301;-57
2022/12/04 00:16:36;;;;;;;424.13;254.07;;;;;;;0.83;76.46;101751.94;4212046;28;20304;-59
2022/12/04 00:18:38;;;;;;;429.50;267.13;;;;;;;0.82;76.57;101756.41;4213099;28;20344;-58
2022/12/04 00:20:41;;;;;;;440.23;291.93;;;;;;;0.77;76.46;101741.66;4211125;28;20672;-58
2022/12/04 00:22:43;;;;;;;438.07;284.33;;;;;;;0.82;76.46;101748.44;4212618;28;20285;-61
2022/12/04 00:24:47;;;;;;;422.37;244.90;;;;;;;0.85;76.55;101753.56;4213092;28;20293;-59
2022/12/04 00:26:49;;;;;;;424.10;255.93;;;;;;;0.82;76.41;101747.59;4207121;28;20332;-59
2022/12/04 00:28:52;;;;;;;413.00;227.10;;;;;;;0.85;76.58;101747.41;4212757;28;20309;-59
2022/12/04 00:30:54;;;;;;;610.70;553.50;;;;;;;0.85;76.53;101748.25;4211835;28;20767;-57
2022/12/04 00:32:57;;;;;;;602.17;543.60;;;;;;;0.84;76.68;101743.88;4212458;28;20284;-56
2022/12/04 00:34:59;;;;;;;586.23;528.40;;;;;;;0.85;76.78;101734.97;4211610;28;20338;-59
2022/12/04 00:37:01;;;;;;;478.17;368.50;;;;;;;0.87;76.60;101737.53;4212225;28;20276;-57
2022/12/04 00:39:05;;;;;;;465.37;351.17;;;;;;;0.88;76.71;101734.78;4211868;28;20690;-59
2022/12/04 00:41:10;;;;;;;470.57;376.33;;;;;;;0.89;76.76;101736.50;4211977;28;20301;-57
2022/12/04 00:43:12;;;;;;;441.20;294.37;;;;;;;0.88;76.53;101737.44;4209257;28;20276;-58
2022/12/04 00:45:15;;;;;;;329.50;117.57;;;;;;;0.87;76.67;101741.03;4206223;28;20284;-55
2022/12/04 00:47:17;;;;;;;254.97;114.73;;;;;;;0.86;76.81;101741.13;4203351;28;20711;-57
2022/12/04 00:49:19;;;;;;;30.33;28.13;;;;;;;0.82;76.87;101743.13;4205022;28;21052;-59
2022/12/04 00:51:23;;;;;;;148.63;135.03;;;;;;;0.82;77.00;101737.81;4211249;28;20317;-60
2022/12/04 00:53:26;;;;;;;595.57;538.87;;;;;;;0.78;77.08;101730.09;4198751;28;20285;-59
2022/12/04 00:55:28;;;;;;;482.73;408.83;;;;;;;0.87;77.04;101741.03;4210322;28;20316;-58
2022/12/04 00:57:32;;;;;;;467.83;390.80;;;;;;;0.89;76.82;101735.63;4193500;28;20660;-58
2022/12/04 00:59:34;;;;;;;449.87;345.73;;;;;;;0.89;76.90;101740.94;4211555;28;20201;-58
2022/12/04 01:01:36;;;;;;;466.57;375.90;;;;;;;0.89;76.96;101741.81;4211060;28;20324;-58
2022/12/04 01:03:39;;;;;;;568.03;513.00;;;;;;;0.85;76.98;101729.63;4211571;28;20284;-58
2022/12/04 01:05:43;;;;;;;464.23;379.87;;;;;;;0.87;77.06;101734.88;4210808;28;20681;-59
2022/12/04 01:07:45;;;;;;;453.70;353.77;;;;;;;0.87;77.15;101741.03;4211335;28;20304;-57
2022/12/04 01:09:47;;;;;;;87.60;77.97;;;;;;;0.87;76.95;101732.22;4211680;28;20281;-58
2022/12/04 01:11:50;;;;;;;456.23;350.30;;;;;;;0.89;77.27;101736.50;4211139;28;20308;-57
2022/12/04 01:13:53;;;;;;;393.80;346.47;;;;;;;0.89;77.17;101741.81;4220486;28;20272;-57
2022/12/04 01:15:56;;;;;;;574.83;524.47;;;;;;;0.88;77.25;101744.56;4193753;28;20320;-58
2022/12/04 01:17:58;;;;;;;482.77;433.27;;;;;;;0.89;77.38;101744.50;4211570;28;20300;-58
2022/12/04 01:20:00;;;;;;;486.03;431.00;;;;;;;0.91;77.38;101739.06;4211182;28;20772;-59
2022/12/04 01:22:03;;;;;;;469.80;379.67;;;;;;;0.92;77.19;101748.75;4211862;28;20281;-58
2022/12/04 01:24:06;;;;;;;460.00;359.40;;;;;;;0.94;77.41;101746.88;4212051;28;20276;-59
2022/12/04 01:26:12;;;;;;;507.77;454.60;;;;;;;0.93;77.32;101742.50;4210802;28;20339;-58
2022/12/04 01:28:14;;;;;;;418.47;396.73;;;;;;;0.96;77.42;101738.81;4212094;28;20248;-59
2022/12/04 01:30:18;;;;;;;480.17;431.43;;;;;;;0.97;77.36;101738.72;4211631;28;20273;-58
2022/12/04 01:32:20;;;;;;;499.53;445.63;;;;;;;0.99;77.30;101741.28;4211916;28;20839;-57
2022/12/04 01:34:24;;;;;;;440.83;307.57;;;;;;;0.99;77.33;101735.97;4211906;28;20304;-59
2022/12/04 01:36:27;;;;;;;454.77;346.67;;;;;;;0.97;77.30;101733.41;4211328;28;20782;-58
2022/12/04 01:38:30;;;;;;;0.80;0.80;;;;;;;1.00;77.43;101732.34;4211835;28;20300;-57
2022/12/04 01:40:32;;;;;;;0.80;0.80;;;;;;;0.99;77.48;101736.81;4211613;28;20305;-57
2022/12/04 01:42:34;;;;;;;256.73;238.93;;;;;;;0.95;77.44;101716.66;4212069;28;20234;-55
2022/12/04 01:44:45;;;;;;;480.43;429.70;;;;;;;0.97;77.47;101725.41;4212041;28;20280;-57
2022/12/04 01:46:51;;;;;;;436.17;278.07;;;;;;;0.89;77.87;101709.91;4210757;28;20312;-59
2022/12/04 01:48:54;;;;;;;470.77;380.10;;;;;;;0.93;77.79;101712.38;4209859;28;20296;-56
2022/12/04 01:51:02;;;;;;;474.17;407.93;;;;;;;0.94;78.00;101717.63;4210836;28;20320;-59
2022/12/04 01:53:04;;;;;;;515.33;460.97;;;;;;;0.91;78.15;101728.44;4211365;28;20272;-59
2022/12/04 01:55:08;;;;;;;532.67;482.73;;;;;;;0.95;78.06;101726.44;4210869;28;20305;-58
2022/12/04 01:57:13;;;;;;;440.60;301.27;;;;;;;0.97;78.17;101727.19;4211877;28;20296;-57
2022/12/04 01:59:17;;;;;;;0.90;0.90;;;;;;;0.96;78.25;101718.38;4210303;28;20293;-59
2022/12/04 02:01:20;;;;;;;443.00;320.13;;;;;;;0.98;78.30;101726.25;4211067;28;20316;-59
2022/12/04 02:03:23;;;;;;;457.93;358.03;;;;;;;0.99;78.10;101725.34;4211502;28;20281;-57
2022/12/04 02:05:25;;;;;;;439.90;287.80;;;;;;;0.99;78.12;101726.19;4211356;28;20332;-59
2022/12/04 02:07:28;;;;;;;384.27;273.00;;;;;;;0.98;78.27;101721.78;4215153;28;20300;-57
2022/12/04 02:09:31;;;;;;;433.67;346.80;;;;;;;1.00;78.18;101717.22;4211756;28;20276;-59
2022/12/04 02:11:38;;;;;;;9.30;8.80;;;;;;;0.99;78.12;101715.53;4214154;28;20316;-56
2022/12/04 02:13:47;;;;;;;0.80;0.80;;;;;;;1.00;78.01;101713.72;4205441;28;20276;-58
2022/12/04 02:15:54;;;;;;;394.63;334.83;;;;;;;0.99;78.03;101707.56;4208401;28;20304;-56
2022/12/04 02:18:02;;;;;;;528.57;476.60;;;;;;;0.98;78.38;101707.66;4207209;28;20317;-59
2022/12/04 02:20:19;;;;;;;448.90;343.13;;;;;;;0.99;78.27;101698.72;4208489;28;20276;-59
2022/12/04 02:22:30;;;;;;;430.53;279.87;;;;;;;0.99;78.46;101702.22;4214950;28;20280;-61
2022/12/04 02:24:42;;;;;;;491.57;437.33;;;;;;;0.99;78.30;101694.25;4214821;28;20335;-60
2022/12/04 02:26:48;;;;;;;389.30;344.07;;;;;;;0.97;78.46;101690.84;4211389;28;20665;-59
2022/12/04 02:28:54;;;;;;;434.03;281.97;;;;;;;0.98;78.59;101697.00;4214650;28;20298;-59
2022/12/04 02:30:59;;;;;;;449.10;316.23;;;;;;;0.97;78.69;101692.63;4211327;28;20675;-59
2022/12/04 02:33:03;;;;;;;438.77;284.13;;;;;;;0.96;78.42;101686.47;4214221;28;20288;-59
2022/12/04 02:35:12;;;;;;;451.77;324.60;;;;;;;0.94;78.59;101691.03;4212687;28;20349;-58
2022/12/04 02:37:18;;;;;;;468.37;381.93;;;;;;;0.90;78.69;101694.78;4195870;28;20294;-58
2022/12/04 02:39:24;;;;;;;480.50;397.90;;;;;;;0.93;78.80;101699.94;4214668;28;20285;-58
2022/12/04 02:41:32;;;;;;;483.13;406.63;;;;;;;0.95;78.69;101694.53;4213701;28;20774;-59
2022/12/04 02:43:39;;;;;;;481.40;403.17;;;;;;;0.95;78.67;101687.38;4214588;28;20623;-59
2022/12/04 02:45:45;;;;;;;459.23;344.70;;;;;;;0.91;78.74;101680.56;4213357;28;20320;-57
2022/12/04 02:47:47;;;;;;;452.33;332.13;;;;;;;0.94;78.82;101675.06;4214339;28;20296;-59
2022/12/04 02:49:53;;;;;;;470.23;364.47;;;;;;;0.93;78.89;101672.50;4214311;28;20311;-57
2022/12/04 02:51:57;;;;;;;455.20;346.03;;;;;;;0.90;78.75;101673.53;4213509;28;20267;-58
2022/12/04 02:54:03;;;;;;;440.53;297.93;;;;;;;0.88;78.94;101676.28;4214569;28;20276;-54
2022/12/04 02:56:08;;;;;;;445.83;320.77;;;;;;;0.88;79.11;101672.75;4195033;28;20320;-59
2022/12/04 02:58:15;;;;;;;436.70;296.60;;;;;;;0.86;79.11;101669.31;4210213;28;20304;-58
2022/12/04 03:00:18;;;;;;;448.17;322.47;;;;;;;0.86;79.05;101674.63;4194601;28;20297;-59
2022/12/04 03:02:26;;;;;;;434.23;310.97;;;;;;;0.87;79.37;101676.34;4211697;28;20285;-58
2022/12/04 03:04:30;;;;;;;424.00;263.17;;;;;;;0.87;79.24;101674.53;4214315;28;20550;-59
2022/12/04 03:06:36;;;;;;;428.90;259.13;;;;;;;0.88;79.16;101662.13;4212668;28;20257;-59
2022/12/04 03:08:42;;;;;;;428.87;266.47;;;;;;;0.89;79.12;101667.34;4213711;28;20754;-60
2022/12/04 03:10:47;;;;;;;432.03;292.60;;;;;;;0.89;78.88;101664.69;4212658;28;20344;-59
2022/12/04 03:12:52;;;;;;;437.60;309.80;;;;;;;0.88;79.14;101676.28;4214071;28;20288;-57
2022/12/04 03:14:58;;;;;;;430.57;276.40;;;;;;;0.88;79.03;101680.75;4213126;28;21013;-59
2022/12/04 03:17:04;;;;;;;434.83;283.87;;;;;;;0.87;79.00;101682.53;4211141;28;21486;-60
2022/12/04 03:19:10;;;;;;;448.27;318.60;;;;;;;0.88;79.04;101668.28;4214096;28;20272;-59
2022/12/04 03:21:17;;;;;;;434.63;270.47;;;;;;;0.87;79.22;101666.56;4211888;28;20252;-59
2022/12/04 03:23:23;;;;;;;432.53;268.77;;;;;;;0.84;78.88;101652.59;4201992;28;20281;-60
2022/12/04 03:25:29;;;;;;;428.87;260.80;;;;;;;0.87;78.89;101669.22;4212933;28;20217;-59
2022/12/04 03:27:35;;;;;;;422.07;242.63;;;;;;;0.88;78.96;101660.31;4213229;28;20312;-59
2022/12/04 03:29:41;;;;;;;434.57;289.23;;;;;;;0.90;79.10;101671.69;4212798;28;20289;-59
2022/12/04 03:31:47;;;;;;;431.33;267.63;;;;;;;0.92;78.96;101665.44;4203550;28;20313;-59
2022/12/04 03:33:50;;;;;;;434.07;275.07;;;;;;;0.93;78.95;101667.16;4213126;28;20308;-59
2022/12/04 03:35:57;;;;;;;437.23;285.83;;;;;;;0.94;79.06;101669.75;4211967;28;20635;-59
2022/12/04 03:38:02;;;;;;;454.27;322.90;;;;;;;0.94;78.85;101668.88;4213222;28;20316;-60
2022/12/04 03:40:08;;;;;;;299.33;195.47;;;;;;;0.94;78.90;101664.41;4212372;28;20300;-59
2022/12/04 03:42:14;;;;;;;0.90;0.90;;;;;;;0.95;78.78;101662.59;4213169;28;20296;-57
2022/12/04 03:44:20;;;;;;;161.43;145.33;;;;;;;0.95;78.76;101663.44;4213013;28;20277;-57
2022/12/04 03:46:27;;;;;;;436.13;284.10;;;;;;;0.95;78.69;101666.09;4211674;28;20234;-59
2022/12/04 03:48:33;;;;;;;306.23;242.57;;;;;;;0.93;78.86;101659.19;4212676;28;20304;-56
2022/12/04 03:50:37;;;;;;;469.50;369.53;;;;;;;0.93;78.88;101668.00;4211339;28;20318;-57
2022/12/04 03:52:46;;;;;;;445.30;305.77;;;;;;;0.92;79.03;101674.28;4212740;28;20288;-58
2022/12/04 03:54:50;;;;;;;454.43;335.20;;;;;;;0.93;78.93;101676.00;4212302;28;20288;-58
2022/12/04 03:56:55;;;;;;;468.23;394.60;;;;;;;0.94;79.09;101669.75;4211489;28;20316;-59
2022/12/04 03:59:03;;;;;;;4.73;4.53;;;;;;;0.97;79.26;101666.91;4212673;28;20753;-57
2022/12/04 04:01:07;;;;;;;0.73;0.73;;;;;;;0.98;78.94;101667.75;4211767;28;20304;-59
2022/12/04 04:03:13;;;;;;;114.70;95.47;;;;;;;0.99;78.97;101661.47;4212955;28;20297;-59
2022/12/04 04:05:16;;;;;;;0.80;0.80;;;;;;;0.97;78.94;101666.91;4199184;28;20224;-59
2022/12/04 04:07:22;;;;;;;389.90;311.17;;;;;;;0.95;79.12;101668.78;4212391;28;20205;-59
2022/12/04 04:09:28;;;;;;;428.57;264.60;;;;;;;0.98;78.92;101665.94;4213047;28;20273;-57
2022/12/04 04:11:34;;;;;;;425.70;254.67;;;;;;;0.98;78.99;101665.94;4195684;28;21000;-53
2022/12/04 04:25:28;;;;;;;429.17;266.47;;;;;;;0.93;79.20;101659.19;4204028;28;20244;-59
2022/12/04 04:27:30;;;;;;;432.17;272.33;;;;;;;0.94;79.04;101663.53;4212275;28;20209;-59
2022/12/04 04:29:32;;;;;;;432.63;279.73;;;;;;;0.93;79.08;101651.22;4205185;28;20284;-57
2022/12/04 04:31:38;;;;;;;438.43;304.93;;;;;;;0.94;79.06;101640.47;4211238;28;20316;-59
2022/12/04 04:33:48;;;;;;;439.27;313.33;;;;;;;0.99;79.11;101650.84;4212666;28;20308;-60
2022/12/04 04:35:53;;;;;;;424.00;262.73;;;;;;;1.00;79.08;101653.38;4210903;28;20259;-59
2022/12/04 04:38:00;;;;;;;425.50;262.53;;;;;;;1.00;78.90;101652.53;4212601;28;20292;-59
2022/12/04 04:40:08;;;;;;;436.43;283.70;;;;;;;1.00;79.14;101648.06;4212084;28;20280;-60
2022/12/04 04:42:16;;;;;;;446.47;317.93;;;;;;;0.99;79.11;101646.38;4212847;28;20272;-60
2022/12/04 04:44:21;;;;;;;452.00;341.47;;;;;;;1.00;79.17;101652.53;4212400;28;20272;-62
2022/12/04 04:46:28;;;;;;;453.83;347.87;;;;;;;0.98;79.04;101647.31;4193353;28;20704;-59
2022/12/04 04:48:32;;;;;;;455.03;353.87;;;;;;;0.98;79.10;101647.31;4208711;28;20799;-58
2022/12/04 04:50:36;;;;;;;453.13;332.03;;;;;;;1.01;79.13;101646.28;4210702;28;20718;-59
2022/12/04 04:52:40;;;;;;;472.50;390.80;;;;;;;1.02;79.12;101645.31;4212521;28;20273;-59
2022/12/04 04:54:42;;;;;;;460.87;366.50;;;;;;;1.04;78.95;101643.44;4212501;28;20618;-59
2022/12/04 04:56:46;;;;;;;456.93;343.83;;;;;;;1.02;79.12;101646.19;4207928;28;20308;-60
2022/12/04 04:58:50;;;;;;;450.07;318.97;;;;;;;1.04;79.08;101646.94;4209461;28;20301;-59
2022/12/04 05:00:58;;;;;;;450.90;313.60;;;;;;;1.06;79.13;101644.19;4210823;28;20308;-59
2022/12/04 05:03:00;;;;;;;479.73;427.05;;;;;;;1.14;78.70;101641.91;4206377;28;24878;-57
2022/12/04 05:05:02;;;;;;;437.83;289.77;;;;;;;1.27;78.20;101650.03;4209929;28;20293;-60
2022/12/04 05:07:04;;;;;;;427.97;287.87;;;;;;;1.25;78.21;101659.88;4212523;28;20832;-60
2022/12/04 05:09:07;;;;;;;440.70;324.67;;;;;;;1.19;78.05;101654.94;4212581;28;20273;-59
2022/12/04 05:11:12;;;;;;;431.53;275.57;;;;;;;1.19;78.49;101663.78;4211617;28;20661;-59
2022/12/04 05:13:15;;;;;;;429.97;269.37;;;;;;;1.16;78.55;101660.44;4212130;28;20312;-59
2022/12/04 05:15:19;;;;;;;429.90;278.17;;;;;;;1.13;78.62;101652.63;4211289;28;20731;-58
2022/12/04 05:17:21;;;;;;;412.37;236.90;;;;;;;1.13;78.62;101661.50;4211833;28;20627;-60
2022/12/04 05:21:43;;;;;;;417.73;242.13;;;;;;;1.12;78.66;101656.28;4211294;28;20308;-59
2022/12/04 05:23:45;;;;;;;436.93;305.40;;;;;;;1.11;78.84;101651.88;4212356;28;20285;-59
2022/12/04 05:25:48;;;;;;;419.30;239.20;;;;;;;1.10;78.91;101656.38;4210913;28;20316;-59
2022/12/04 05:27:50;;;;;;;420.27;244.67;;;;;;;1.11;78.93;101651.88;4212111;28;20292;-58
2022/12/04 05:29:52;;;;;;;426.07;253.00;;;;;;;1.11;79.00;101660.72;4212412;28;20276;-58
2022/12/04 05:31:56;;;;;;;431.47;281.23;;;;;;;1.11;79.04;101654.56;4211296;28;20328;-57
2022/12/04 05:33:58;;;;;;;427.70;274.30;;;;;;;1.11;79.04;101663.38;4211903;28;20313;-59
2022/12/04 05:36:04;;;;;;;425.63;268.90;;;;;;;1.12;78.92;101659.78;4209936;28;20770;-60
2022/12/04 05:38:06;;;;;;;414.13;227.23;;;;;;;1.12;78.99;101659.78;4210278;28;20303;-59
2022/12/04 05:40:09;;;;;;;422.77;253.00;;;;;;;1.11;79.02;101651.88;4204340;28;20281;-59
2022/12/04 05:42:12;;;;;;;412.20;241.33;;;;;;;1.13;79.07;101657.97;4210903;28;20277;-59
2022/12/04 05:44:14;;;;;;;416.90;239.00;;;;;;;1.13;79.12;101668.59;4213024;28;20284;-58
2022/12/04 05:46:17;;;;;;;419.43;240.90;;;;;;;1.12;79.05;101666.91;4213281;28;20320;-59
2022/12/04 05:48:20;;;;;;;432.07;267.03;;;;;;;1.15;78.87;101666.72;4208589;28;20344;-58
2022/12/04 05:50:23;;;;;;;422.00;249.87;;;;;;;1.16;78.89;101661.31;4206537;28;20738;-57
2022/12/04 05:52:25;;;;;;;432.17;298.20;;;;;;;1.17;78.97;101660.34;4212701;28;20285;-59
2022/12/04 05:54:27;;;;;;;420.47;252.97;;;;;;;1.17;78.86;101663.00;4213028;28;20285;-61
2022/12/04 05:56:30;;;;;;;430.77;286.93;;;;;;;1.15;78.83;101645.44;4212376;28;20317;-60
2022/12/04 05:58:34;;;;;;;434.10;290.13;;;;;;;1.18;78.72;101655.91;4214461;28;20300;-59
2022/12/04 06:00:37;;;;;;;421.13;251.20;;;;;;;1.16;78.90;101655.13;4213544;28;20316;-57
2022/12/04 06:02:39;;;;;;;412.93;233.40;;;;;;;1.15;78.91;101651.59;4213048;28;20296;-57
2022/12/04 06:04:43;;;;;;;411.90;236.33;;;;;;;1.14;79.07;101647.22;4197029;28;20310;-57
2022/12/04 06:06:46;;;;;;;413.33;224.87;;;;;;;1.17;79.25;101646.19;4212595;28;20320;-59
2022/12/04 06:08:48;;;;;;;431.17;268.47;;;;;;;1.14;78.81;101638.41;4194559;28;20751;-60
2022/12/04 06:10:50;;;;;;;420.43;243.63;;;;;;;1.16;79.02;101652.44;4200933;28;20645;-60
2022/12/04 06:12:56;;;;;;;418.67;258.40;;;;;;;1.15;79.11;101648.09;4211059;28;20956;-58
2022/12/04 06:14:58;;;;;;;418.37;249.83;;;;;;;1.15;79.36;101654.28;4200257;28;20273;-58
2022/12/04 06:17:01;;;;;;;421.57;258.20;;;;;;;1.14;79.37;101644.56;4207867;28;20304;-59
2022/12/04 06:19:05;;;;;;;426.13;276.57;;;;;;;1.17;79.27;101647.03;4208020;28;20213;-57
2022/12/04 06:21:09;;;;;;;424.73;248.60;;;;;;;1.17;79.41;101648.84;4207828;28;20314;-60
2022/12/04 06:23:11;;;;;;;407.93;223.63;;;;;;;1.18;79.39;101647.91;4209305;28;20273;-59
2022/12/04 06:25:14;;;;;;;406.10;214.07;;;;;;;1.17;79.29;101652.34;4209855;28;20300;-60
2022/12/04 06:27:16;;;;;;;403.53;207.27;;;;;;;1.15;79.13;101653.44;4204165;28;20715;-59
2022/12/04 06:29:19;;;;;;;402.73;210.63;;;;;;;1.16;79.28;101656.00;4206776;28;20288;-61
2022/12/04 06:31:21;;;;;;;420.67;251.00;;;;;;;1.15;79.37;101651.59;4193716;28;20214;-60
2022/12/04 06:33:24;;;;;;;414.20;246.33;;;;;;;1.16;79.52;101647.13;4204194;28;21108;-60
2022/12/04 06:35:26;;;;;;;413.60;241.17;;;;;;;1.17;79.53;101640.88;4212469;28;20316;-60
2022/12/04 06:37:30;;;;;;;405.53;219.07;;;;;;;1.18;79.38;101643.44;4219467;28;20299;-61
2022/12/04 06:39:32;;;;;;;413.77;234.47;;;;;;;1.19;79.53;101647.81;4198164;28;20289;-61
2022/12/04 06:41:34;;;;;;;420.23;236.03;;;;;;;1.19;79.52;101652.28;4223062;28;20800;-60
2022/12/04 06:43:37;;;;;;;403.03;215.93;;;;;;;1.18;79.50;101648.75;4210175;28;20281;-59
2022/12/04 06:45:39;;;;;;;393.63;200.00;;;;;;;1.19;79.67;101652.28;4216845;28;20304;-59
2022/12/04 06:47:41;;;;;;;394.43;206.00;;;;;;;1.17;79.62;101649.69;4212990;28;20292;-57
2022/12/04 06:49:44;;;;;;;396.90;217.97;;;;;;;1.17;79.65;101648.84;4220246;28;20706;-58
2022/12/04 06:51:47;;;;;;;398.37;221.93;;;;;;;1.17;79.54;101648.84;4173160;28;20230;-59
2022/12/04 06:53:51;;;;;;;401.00;225.83;;;;;;;1.18;79.65;101647.91;4192318;28;20282;-59
2022/12/04 06:55:53;;;;;;;396.70;201.03;;;;;;;1.18;79.59;101645.25;4200321;28;20332;-60
2022/12/04 06:57:56;;;;;;;397.57;197.50;;;;;;;1.16;79.47;101637.38;4218081;28;20755;-59
2022/12/04 06:59:58;;;;;;;507.93;452.23;;;;;;;1.18;79.75;101643.44;4217205;28;20724;-59
2022/12/04 07:02:00;;;;;;;464.40;390.77;;;;;;;1.18;79.75;101646.09;4218253;28;21618;-59
2022/12/04 07:04:03;;;;;;;483.80;377.13;;;;;;;1.21;79.66;101651.22;4199500;28;20293;-60
2022/12/04 07:06:13;;;;;;;384.30;342.37;;;;;;;1.22;79.58;101652.09;4201406;28;20225;-60
2022/12/04 07:08:16;;;;;;;464.97;363.60;;;;;;;1.22;79.91;101652.97;4217560;28;20327;-61
2022/12/04 07:10:20;;;;;;;449.00;316.63;;;;;;;1.23;79.73;101654.66;4213461;28;20332;-58
2022/12/04 07:12:22;;;;;;;458.90;342.73;;;;;;;1.25;79.79;101657.22;4218347;28;20200;-60
2022/12/04 07:14:24;;;;;;;448.10;325.80;;;;;;;1.27;79.69;101647.34;4219112;28;20698;-60
2022/12/04 07:16:28;;;;;;;442.67;303.43;;;;;;;1.28;79.65;101642.88;4209507;28;20241;-58
2022/12/04 07:18:32;;;;;;;427.30;267.03;;;;;;;1.28;79.65;101635.75;4218657;28;20655;-58
2022/12/04 07:20:35;;;;;;;447.20;306.13;;;;;;;1.29;79.46;101640.13;4225160;28;20321;-59
2022/12/04 07:22:37;;;;;;;455.73;332.80;;;;;;;1.28;79.38;101633.06;4223263;28;20287;-60
2022/12/04 07:24:39;;;;;;;450.87;319.03;;;;;;;1.29;79.44;101631.28;4217231;28;20288;-60
2022/12/04 07:26:43;;;;;;;424.07;266.20;;;;;;;1.31;79.36;101640.88;4224054;28;20303;-60
2022/12/04 07:28:45;;;;;;;443.03;311.53;;;;;;;1.31;79.33;101643.53;4219678;28;20305;-60
2022/12/04 07:30:47;;;;;;;441.30;296.90;;;;;;;1.30;79.59;101641.84;4219488;28;20308;-61
2022/12/04 07:32:50;;;;;;;422.20;240.13;;;;;;;1.31;79.50;101646.19;4216497;28;20281;-60
2022/12/04 07:34:52;;;;;;;430.67;281.93;;;;;;;1.30;79.68;101636.53;4209850;28;20274;-60
2022/12/04 07:36:54;;;;;;;421.17;246.67;;;;;;;1.31;79.66;101642.69;4206491;28;20309;-60
2022/12/04 07:38:57;;;;;;;424.83;248.77;;;;;;;1.30;79.69;101644.50;4204903;28;20308;-60
2022/12/04 07:40:59;;;;;;;418.47;246.10;;;;;;;1.31;79.58;101646.19;4207738;28;20313;-59
2022/12/04 07:43:03;;;;;;;416.20;242.63;;;;;;;1.31;79.69;101648.84;4209265;28;20273;-59
2022/12/04 07:45:06;;;;;;;416.47;245.90;;;;;;;1.32;79.67;101655.06;4208820;28;20336;-60
2022/12/04 07:47:09;;;;;;;416.47;245.93;;;;;;;1.32;79.52;101657.72;4211581;28;20277;-59
2022/12/04 07:49:12;;;;;;;422.70;264.70;;;;;;;1.29;79.67;101653.44;4209880;28;20273;-59
2022/12/04 07:51:16;;;;;;;433.93;274.90;;;;;;;1.30;79.67;101654.28;4210535;28;20324;-60
2022/12/04 07:53:18;;;;;;;425.73;264.67;;;;;;;1.30;79.77;101651.63;4206941;28;20683;-60
2022/12/04 07:55:21;;;;;;;416.63;243.50;;;;;;;1.29;79.77;101648.09;4191341;28;20305;-61
2022/12/04 07:57:23;;;;;;;415.23;243.30;;;;;;;1.29;79.97;101656.09;4209484;28;20288;-60
2022/12/04 07:59:27;;;;;;;406.30;230.90;;;;;;;1.32;79.95;101655.06;4209776;28;20293;-60
2022/12/04 08:01:29;;;;;;;405.17;218.90;;;;;;;1.32;79.84;101658.56;4209109;28;20643;-61
2022/12/04 08:03:31;;;;;;;399.23;213.47;;;;;;;1.33;79.79;101657.59;4207774;28;20282;-61
2022/12/04 08:05:33;;;;;;;410.43;247.43;;;;;;;1.32;79.71;101658.56;4202595;28;20841;-62
2022/12/04 08:07:36;;;;;;;412.17;245.60;;;;;;;1.34;79.76;101661.97;4210067;28;20304;-59
2022/12/04 08:09:38;;;;;;;421.90;260.23;;;;;;;1.32;79.85;101661.22;4206292;28;20276;-59
2022/12/04 08:11:41;;;;;;;287.10;248.33;;;;;;;1.32;79.82;101668.38;4211029;28;20325;-59
2022/12/04 08:13:43;;;;;;;429.77;272.83;;;;;;;1.32;80.01;101665.72;4212988;28;20234;-60
2022/12/04 08:15:47;;;;;;;450.47;331.00;;;;;;;1.32;80.15;101660.38;4206645;28;20306;-60
2022/12/04 08:17:49;;;;;;;465.87;379.60;;;;;;;1.33;80.12;101662.06;4200010;28;20618;-59
2022/12/04 08:19:51;;;;;;;461.47;365.13;;;;;;;1.33;80.03;101673.56;4203100;28;20285;-60
2022/12/04 08:21:54;;;;;;;474.23;378.57;;;;;;;1.31;80.15;101662.16;4201818;28;20264;-59
2022/12/04 08:23:57;;;;;;;474.47;399.37;;;;;;;1.29;80.04;101661.41;4204079;28;20290;-60
2022/12/04 08:26:00;;;;;;;454.80;325.90;;;;;;;1.35;80.11;101673.47;4203284;28;20304;-62
2022/12/04 08:28:02;;;;;;;483.47;422.93;;;;;;;1.36;80.11;101669.88;4200844;28;20786;-61
2022/12/04 08:30:06;;;;;;;477.83;408.47;;;;;;;1.35;80.02;101652.19;4209686;28;20272;-61
2022/12/04 08:32:10;;;;;;;472.30;384.00;;;;;;;1.38;80.15;101654.66;4208541;28;20281;-60
2022/12/04 08:34:12;;;;;;;475.43;379.90;;;;;;;1.40;79.76;101663.41;4196072;28;20734;-60
2022/12/04 08:36:18;;;;;;;445.23;313.17;;;;;;;1.39;79.90;101654.56;4192604;28;20316;-60
2022/12/04 08:38:20;;;;;;;476.97;413.27;;;;;;;1.41;79.77;101660.66;4195566;28;20313;-60
2022/12/04 08:40:22;;;;;;;462.03;368.10;;;;;;;1.40;80.05;101669.59;4195259;28;20305;-60
2022/12/04 08:42:24;;;;;;;478.70;421.27;;;;;;;1.41;79.84;101670.44;4195719;28;20652;-61
2022/12/04 08:44:27;;;;;;;457.90;357.87;;;;;;;1.42;79.82;101670.34;4196297;28;20281;-61
2022/12/04 08:46:29;;;;;;;470.67;362.30;;;;;;;1.46;79.74;101672.81;4194890;28;20330;-60
2022/12/04 08:48:34;;;;;;;453.57;318.40;;;;;;;1.45;79.77;101674.63;4195530;28;20306;-59
2022/12/04 08:50:36;;;;;;;453.17;316.03;;;;;;;1.44;79.72;101673.78;4194577;28;20325;-60
2022/12/04 08:52:40;;;;;;;457.23;329.73;;;;;;;1.44;79.79;101672.91;4195775;28;20277;-59
2022/12/04 08:54:42;;;;;;;443.23;290.23;;;;;;;1.47;79.83;101666.53;4193006;28;20194;-60
2022/12/04 08:56:45;;;;;;;445.77;294.87;;;;;;;1.47;79.79;101663.88;4193684;28;20301;-60
2022/12/04 08:58:47;;;;;;;446.83;304.37;;;;;;;1.48;79.77;101657.63;4187354;28;20641;-59
2022/12/04 09:00:50;;;;;;;444.70;298.53;;;;;;;1.48;79.84;101663.78;4188479;28;20323;-60
2022/12/04 09:02:52;;;;;;;449.23;310.13;;;;;;;1.47;79.59;101659.41;4194076;28;20281;-61
2022/12/04 09:04:55;;;;;;;452.40;326.80;;;;;;;1.47;79.73;101663.88;4195561;28;20285;-61
2022/12/04 09:06:58;;;;;;;445.67;303.33;;;;;;;1.47;79.72;101671.88;4194194;28;20752;-59
2022/12/04 09:09:00;;;;;;;447.50;327.03;;;;;;;1.47;79.52;101678.03;4195441;28;20289;-59
2022/12/04 09:11:04;;;;;;;452.53;337.70;;;;;;;1.49;79.62;101678.81;4194710;28;20310;-60
2022/12/04 09:13:07;;;;;;;460.20;355.53;;;;;;;1.47;79.55;101683.38;4195850;28;20385;-60
2022/12/04 09:15:10;;;;;;;474.10;394.60;;;;;;;1.50;79.51;101682.34;4191610;28;20549;-61
2022/12/04 09:17:12;;;;;;;459.13;344.23;;;;;;;1.50;79.72;101685.84;4198867;28;20731;-60
2022/12/04 09:19:14;;;;;;;455.30;344.10;;;;;;;1.54;79.63;101690.03;4195278;28;20643;-59
2022/12/04 09:21:20;;;;;;;444.57;301.83;;;;;;;1.55;79.69;101683.78;4197461;28;20312;-59
2022/12/04 09:23:22;;;;;;;442.20;285.87;;;;;;;1.56;79.65;101684.63;4199111;28;20240;-60
2022/12/04 09:25:24;;;;;;;451.73;323.93;;;;;;;1.56;79.46;101679.28;4197307;28;20333;-60
2022/12/04 09:27:27;;;;;;;455.73;341.33;;;;;;;1.57;79.38;101678.34;4198879;28;20305;-59
2022/12/04 09:29:29;;;;;;;450.93;329.30;;;;;;;1.57;79.33;101679.19;4198985;28;20297;-60